createdAt,value
2017-08-20T00:01:58.450Z,11.00
2017-08-20T00:04:25.438Z,10.77
2017-08-20T00:06:52.368Z,11.33
2017-08-20T00:09:19.352Z,11.37
2017-08-20T00:11:46.324Z,10.80
2017-08-20T00:14:13.229Z,11.07
2017-08-20T00:16:40.236Z,10.40
2017-08-20T00:19:07.171Z,12.53
2017-08-20T00:21:34.137Z,11.57
2017-08-20T00:24:01.050Z,10.83
2017-08-20T00:26:27.973Z,11.63
2017-08-20T00:28:54.872Z,12.17
2017-08-20T00:31:21.840Z,10.83
2017-08-20T00:33:48.808Z,12.70
2017-08-20T00:36:15.799Z,14.47
2017-08-20T00:38:42.681Z,11.70
2017-08-20T00:41:09.625Z,10.70
2017-08-20T00:43:36.559Z,10.73
2017-08-20T00:46:03.424Z,11.43
2017-08-20T00:48:30.346Z,10.57
2017-08-20T00:50:57.279Z,11.33
2017-08-20T00:53:24.157Z,11.53
2017-08-20T00:55:51.150Z,11.20
2017-08-20T00:58:18.086Z,12.40
2017-08-20T01:00:45.085Z,11.20
2017-08-20T01:03:12.135Z,12.00
2017-08-20T01:05:39.092Z,12.33
2017-08-20T01:08:06.013Z,11.70
2017-08-20T01:10:32.999Z,12.00
2017-08-20T01:12:59.929Z,11.90
2017-08-20T01:15:26.821Z,11.00
2017-08-20T01:17:53.717Z,10.27
2017-08-20T01:20:20.623Z,11.13
2017-08-20T01:22:47.580Z,11.83
2017-08-20T01:25:14.592Z,11.90
2017-08-20T01:27:42.596Z,10.80
2017-08-20T01:30:10.512Z,12.63
2017-08-20T01:32:37.524Z,11.20
2017-08-20T01:35:04.462Z,12.27
2017-08-20T01:37:31.390Z,11.57
2017-08-20T01:39:58.348Z,13.10
2017-08-20T01:42:25.259Z,13.63
2017-08-20T01:44:52.168Z,11.30
2017-08-20T01:47:19.095Z,12.37
2017-08-20T01:49:45.997Z,10.87
2017-08-20T01:52:12.923Z,12.80
2017-08-20T01:54:39.935Z,10.90
2017-08-20T01:57:07.651Z,13.70
2017-08-20T01:59:34.487Z,11.47
2017-08-20T02:02:01.393Z,10.83
2017-08-20T02:04:28.326Z,12.70
2017-08-20T02:06:55.216Z,11.20
2017-08-20T02:09:22.186Z,11.27
2017-08-20T02:11:49.088Z,10.90
2017-08-20T02:14:15.992Z,10.23
2017-08-20T02:16:42.939Z,11.83
2017-08-20T02:19:09.843Z,11.40
2017-08-20T02:21:36.743Z,11.33
2017-08-20T02:24:03.647Z,12.60
2017-08-20T02:26:30.547Z,11.23
2017-08-20T02:28:57.436Z,12.83
2017-08-20T02:31:24.339Z,12.03
2017-08-20T02:33:51.248Z,12.30
2017-08-20T02:36:18.177Z,12.60
2017-08-20T02:38:45.137Z,12.00
2017-08-20T02:41:12.044Z,12.53
2017-08-20T02:43:38.926Z,11.73
2017-08-20T02:46:06.693Z,12.90
2017-08-20T02:48:33.537Z,12.43
2017-08-20T02:51:00.433Z,12.17
2017-08-20T02:53:27.327Z,13.20
2017-08-20T02:55:54.215Z,12.50
2017-08-20T02:58:21.065Z,13.20
2017-08-20T03:00:48.786Z,12.80
2017-08-20T03:03:15.703Z,12.27
2017-08-20T03:05:42.563Z,12.40
2017-08-20T03:08:09.475Z,11.87
2017-08-20T03:10:36.339Z,14.03
2017-08-20T03:13:03.199Z,13.00
2017-08-20T03:15:30.120Z,12.47
2017-08-20T03:17:56.984Z,13.13
2017-08-20T03:20:23.859Z,12.53
2017-08-20T03:22:50.784Z,13.67
2017-08-20T03:25:17.651Z,12.50
2017-08-20T03:27:44.495Z,12.03
2017-08-20T03:30:11.399Z,12.83
2017-08-20T03:32:38.324Z,13.00
2017-08-20T03:35:05.185Z,14.00
2017-08-20T03:37:32.113Z,12.70
2017-08-20T03:39:58.998Z,13.43
2017-08-20T03:42:25.895Z,12.70
2017-08-20T03:44:52.834Z,12.70
2017-08-20T03:47:19.767Z,13.40
2017-08-20T03:49:46.621Z,13.23
2017-08-20T03:52:13.550Z,14.77
2017-08-20T03:54:40.958Z,14.23
2017-08-20T03:57:07.832Z,14.07
2017-08-20T03:59:34.721Z,13.23
2017-08-20T04:02:01.555Z,20.97
2017-08-20T04:04:28.423Z,14.87
2017-08-20T04:06:55.316Z,13.70
2017-08-20T04:09:22.721Z,12.47
2017-08-20T04:11:49.647Z,13.80
2017-08-20T04:14:16.568Z,12.03
2017-08-20T04:16:43.423Z,13.60
2017-08-20T04:19:10.323Z,12.87
2017-08-20T04:21:37.259Z,13.33
2017-08-20T04:24:04.889Z,13.30
2017-08-20T04:26:31.778Z,13.17
2017-08-20T04:28:58.672Z,15.00
2017-08-20T04:31:25.570Z,13.50
2017-08-20T04:33:52.409Z,11.63
2017-08-20T04:36:19.335Z,13.67
2017-08-20T04:38:46.201Z,15.17
2017-08-20T04:41:13.141Z,13.07
2017-08-20T04:43:41.124Z,12.50
2017-08-20T04:46:07.976Z,12.93
2017-08-20T04:48:34.880Z,13.73
2017-08-20T04:51:01.829Z,11.87
2017-08-20T04:53:28.680Z,13.10
2017-08-20T04:55:55.556Z,12.50
2017-08-20T04:58:22.709Z,13.30
2017-08-20T05:00:49.590Z,12.70
2017-08-20T05:03:16.426Z,11.93
2017-08-20T05:05:43.318Z,13.03
2017-08-20T05:08:10.205Z,13.50
2017-08-20T05:10:37.213Z,12.73
2017-08-20T05:13:04.120Z,14.03
2017-08-20T05:15:31.035Z,13.60
2017-08-20T05:17:57.972Z,13.47
2017-08-20T05:20:24.888Z,12.33
2017-08-20T05:22:51.834Z,12.43
2017-08-20T05:25:18.792Z,12.07
2017-08-20T05:27:46.187Z,11.57
2017-08-20T05:30:13.146Z,11.80
2017-08-20T05:32:40.887Z,12.17
2017-08-20T05:35:07.939Z,11.10
2017-08-20T05:37:36.777Z,11.93
2017-08-20T05:42:58.244Z,10.67
2017-08-20T05:45:25.783Z,11.03
2017-08-20T05:47:59.484Z,10.90
2017-08-20T06:12:33.401Z,11.10
2017-08-20T06:15:00.317Z,14.00
2017-08-20T06:17:27.227Z,11.17
2017-08-20T06:19:54.133Z,10.40
2017-08-20T06:22:21.107Z,12.13
2017-08-20T06:24:47.983Z,11.73
2017-08-20T06:27:14.847Z,12.37
2017-08-20T06:29:41.780Z,10.77
2017-08-20T06:32:08.623Z,12.03
2017-08-20T06:34:35.515Z,13.37
2017-08-20T06:37:03.612Z,12.00
2017-08-20T06:39:31.972Z,11.80
2017-08-20T06:41:58.820Z,12.67
2017-08-20T06:44:25.732Z,12.13
2017-08-20T06:46:53.583Z,13.20
2017-08-20T06:49:20.471Z,13.10
2017-08-20T06:51:47.358Z,11.60
2017-08-20T06:54:14.218Z,11.27
2017-08-20T06:56:41.075Z,10.83
2017-08-20T06:59:07.976Z,11.27
2017-08-20T07:01:34.807Z,12.53
2017-08-20T07:04:01.663Z,10.70
2017-08-20T07:06:28.589Z,10.90
2017-08-20T07:08:55.385Z,11.43
2017-08-20T07:11:22.225Z,11.10
2017-08-20T07:13:49.139Z,11.00
2017-08-20T07:16:15.961Z,10.57
2017-08-20T07:18:42.888Z,12.03
2017-08-20T07:21:09.800Z,10.30
2017-08-20T07:23:36.642Z,10.63
2017-08-20T07:26:03.607Z,15.27
2017-08-20T07:34:01.322Z,13.37
2017-08-20T07:36:28.231Z,12.07
2017-08-20T07:38:55.207Z,11.83
2017-08-20T07:41:22.117Z,10.87
2017-08-20T07:43:48.967Z,10.80
2017-08-20T07:46:15.846Z,13.83
2017-08-20T07:48:43.263Z,11.77
2017-08-20T07:51:10.577Z,10.20
2017-08-20T07:53:37.437Z,10.20
2017-08-20T07:56:04.408Z,10.33
2017-08-20T07:58:31.271Z,10.20
2017-08-20T08:00:58.220Z,12.60
2017-08-20T08:03:25.172Z,9.07
2017-08-20T08:05:52.064Z,9.90
2017-08-20T08:08:18.964Z,10.93
2017-08-20T08:10:45.874Z,9.83
2017-08-20T08:13:12.692Z,10.10
2017-08-20T08:15:39.564Z,10.00
2017-08-20T08:18:06.447Z,10.33
2017-08-20T08:20:33.442Z,10.00
2017-08-20T08:23:00.312Z,10.07
2017-08-20T08:25:27.223Z,9.87
2017-08-20T08:49:53.434Z,9.70
2017-08-20T08:52:20.455Z,8.43
2017-08-20T08:54:47.390Z,9.47
2017-08-20T08:57:14.324Z,9.23
2017-08-20T08:59:41.243Z,8.63
2017-08-20T09:02:08.187Z,8.93
2017-08-20T09:04:35.190Z,8.73
2017-08-20T09:07:02.195Z,9.40
2017-08-20T09:09:29.254Z,9.57
2017-08-20T09:11:58.132Z,9.23
2017-08-20T09:19:30.349Z,9.40
2017-08-20T09:21:58.016Z,8.70
2017-08-20T09:24:25.010Z,9.03
2017-08-20T09:26:53.166Z,7.93
2017-08-20T09:29:20.107Z,9.13
2017-08-20T09:31:47.389Z,7.60
2017-08-20T09:34:14.320Z,8.40
2017-08-20T09:36:41.242Z,8.37
2017-08-20T09:39:08.077Z,8.13
2017-08-20T09:41:34.906Z,8.60
2017-08-20T09:44:01.874Z,8.80
2017-08-20T09:46:29.131Z,9.77
2017-08-20T09:48:56.127Z,11.03
2017-08-20T09:51:22.989Z,8.50
2017-08-20T09:53:49.908Z,9.10
2017-08-20T09:56:16.870Z,8.60
2017-08-20T09:58:43.815Z,9.93
2017-08-20T10:01:10.733Z,8.10
2017-08-20T10:03:37.612Z,10.70
2017-08-20T10:06:04.552Z,8.07
2017-08-20T10:08:31.419Z,8.13
2017-08-20T10:10:58.255Z,8.00
2017-08-20T10:13:25.162Z,8.77
2017-08-20T10:15:52.051Z,12.03
2017-08-20T10:18:18.951Z,8.93
2017-08-20T10:20:45.857Z,9.13
2017-08-20T10:23:12.756Z,8.87
2017-08-20T10:25:39.654Z,8.97
2017-08-20T10:28:06.518Z,9.77
2017-08-20T10:33:14.256Z,9.30
2017-08-20T10:49:33.173Z,9.47
2017-08-20T10:52:00.404Z,8.83
2017-08-20T10:54:27.783Z,8.73
2017-08-20T10:56:54.728Z,9.67
2017-08-20T10:59:21.784Z,9.50
2017-08-20T11:01:49.583Z,9.00
2017-08-20T11:04:16.556Z,8.90
2017-08-20T11:06:43.808Z,9.40
2017-08-20T11:09:10.903Z,9.10
2017-08-20T11:11:38.593Z,9.03
2017-08-20T11:14:05.683Z,8.53
2017-08-20T11:16:34.670Z,9.10
2017-08-20T11:19:01.676Z,9.23
2017-08-20T11:21:28.714Z,8.43
2017-08-20T11:23:55.891Z,9.17
2017-08-20T11:26:22.829Z,8.37
2017-08-20T11:28:49.814Z,9.70
2017-08-20T11:31:16.796Z,9.67
2017-08-20T11:33:43.956Z,9.37
2017-08-20T11:36:10.955Z,8.40
2017-08-20T11:38:37.865Z,9.13
2017-08-20T11:41:04.781Z,9.10
2017-08-20T11:43:31.761Z,9.20
2017-08-20T11:45:58.668Z,9.63
2017-08-20T11:48:25.782Z,10.50
2017-08-20T11:50:52.717Z,9.80
2017-08-20T11:53:20.526Z,10.67
2017-08-20T11:55:47.541Z,10.80
2017-08-20T11:58:14.520Z,11.87
2017-08-20T12:00:43.420Z,10.77
2017-08-20T12:03:10.405Z,11.30
2017-08-20T12:05:37.534Z,12.83
2017-08-20T12:08:04.654Z,11.63
2017-08-20T12:10:31.663Z,10.50
2017-08-20T12:12:58.770Z,9.20
2017-08-20T12:17:57.722Z,8.60
2017-08-20T12:20:24.783Z,9.30
2017-08-20T12:22:51.835Z,9.60
2017-08-20T12:25:18.923Z,10.60
2017-08-20T12:27:46.018Z,10.33
2017-08-20T12:32:48.854Z,10.40
2017-08-20T12:35:16.007Z,10.57
2017-08-20T12:37:43.832Z,9.90
2017-08-20T12:40:15.239Z,8.93
2017-08-20T12:42:45.436Z,9.20
2017-08-20T12:45:12.704Z,11.13
2017-08-20T12:47:44.448Z,9.80
2017-08-20T15:08:41.875Z,7.90
2017-08-20T15:11:09.677Z,7.30
2017-08-20T15:13:36.859Z,12.90
2017-08-20T15:16:04.332Z,9.10
2017-08-20T15:18:31.482Z,7.83
2017-08-20T15:20:58.585Z,8.60
2017-08-20T15:23:25.558Z,7.23
2017-08-20T15:25:52.489Z,7.43
2017-08-20T15:28:19.487Z,10.00
2017-08-20T15:30:46.448Z,7.53
2017-08-20T15:33:14.384Z,6.87
2017-08-20T15:35:41.503Z,6.93
2017-08-20T15:38:08.477Z,6.67
2017-08-20T15:40:35.410Z,7.60
2017-08-20T15:43:02.345Z,6.73
2017-08-20T15:45:29.237Z,6.80
2017-08-20T15:47:56.446Z,6.73
2017-08-20T15:50:23.431Z,7.00
2017-08-20T15:52:50.638Z,7.27
2017-08-20T15:55:17.629Z,11.07
2017-08-20T15:57:44.958Z,7.03
2017-08-20T16:00:12.050Z,6.90
2017-08-20T16:02:39.045Z,6.17
2017-08-20T16:05:05.977Z,6.40
2017-08-20T16:07:32.879Z,6.37
2017-08-20T16:09:59.873Z,5.70
2017-08-20T16:12:26.753Z,7.67
2017-08-20T16:14:54.560Z,5.67
2017-08-20T16:17:21.576Z,5.93
2017-08-20T16:19:48.424Z,6.27
2017-08-20T16:22:15.325Z,5.83
2017-08-20T16:24:42.315Z,5.50
2017-08-20T16:27:09.230Z,7.80
2017-08-20T16:29:36.169Z,5.50
2017-08-20T16:32:03.191Z,8.10
2017-08-20T16:34:30.187Z,7.27
2017-08-20T16:36:57.254Z,4.97
2017-08-20T16:39:24.218Z,8.63
2017-08-20T16:41:51.180Z,10.10
2017-08-20T16:44:18.082Z,5.80
2017-08-20T16:46:45.036Z,6.20
2017-08-20T16:49:12.011Z,6.13
2017-08-20T16:51:38.904Z,6.40
2017-08-20T16:54:05.922Z,7.07
2017-08-20T16:56:33.035Z,5.80
2017-08-20T16:58:59.973Z,6.87
2017-08-20T17:01:26.946Z,6.03
2017-08-20T17:03:55.211Z,5.43
2017-08-20T17:06:22.177Z,7.80
2017-08-20T17:08:49.111Z,5.80
2017-08-20T17:11:16.036Z,5.40
2017-08-20T17:13:42.975Z,7.30
2017-08-20T17:16:09.979Z,9.30
2017-08-20T17:18:36.916Z,7.30
2017-08-20T17:21:03.857Z,6.10
2017-08-20T17:23:30.844Z,7.27
2017-08-20T17:25:57.746Z,5.93
2017-08-20T17:28:24.643Z,6.33
2017-08-20T17:30:52.712Z,7.97
2017-08-20T17:33:19.618Z,7.60
2017-08-20T17:35:47.183Z,7.60
2017-08-20T17:38:14.301Z,7.13
2017-08-20T17:40:41.223Z,7.27
2017-08-20T17:43:08.598Z,7.47
2017-08-20T17:45:35.595Z,7.00
2017-08-20T17:48:02.534Z,7.00
2017-08-20T17:50:29.626Z,7.60
2017-08-20T17:52:56.920Z,7.40
2017-08-20T17:55:23.927Z,6.93
2017-08-20T17:57:52.346Z,9.10
2017-08-20T18:00:19.355Z,8.63
2017-08-20T18:02:46.239Z,8.40
2017-08-20T18:05:13.569Z,7.23
2017-08-20T18:07:40.554Z,6.77
2017-08-20T18:10:07.604Z,6.57
2017-08-20T18:12:34.580Z,7.07
2017-08-20T18:15:01.633Z,7.80
2017-08-20T18:17:28.646Z,8.40
2017-08-20T18:19:55.701Z,8.63
2017-08-20T18:22:26.358Z,6.80
2017-08-20T18:24:54.218Z,6.60
2017-08-20T18:27:24.887Z,7.03
2017-08-20T18:29:51.915Z,9.00
2017-08-20T18:32:19.285Z,9.57
2017-08-20T18:34:46.386Z,8.57
2017-08-20T18:37:13.598Z,8.70
2017-08-20T18:39:40.561Z,9.73
2017-08-20T18:42:07.590Z,8.63
2017-08-20T18:44:34.614Z,7.10
2017-08-20T18:47:02.540Z,6.93
2017-08-20T18:49:31.790Z,6.63
2017-08-20T18:51:59.306Z,7.87
2017-08-20T18:59:30.518Z,10.80
2017-08-20T19:01:59.028Z,10.40
2017-08-20T19:04:26.588Z,8.90
2017-08-20T19:06:54.606Z,9.93
2017-08-20T19:09:22.562Z,9.13
2017-08-20T19:11:49.614Z,6.50
2017-08-20T19:14:16.660Z,7.23
2017-08-20T19:16:43.852Z,8.50
2017-08-20T19:19:12.085Z,8.67
2017-08-20T19:21:41.832Z,8.00
2017-08-20T19:24:10.486Z,7.63
2017-08-20T19:26:38.294Z,8.53
2017-08-20T19:29:06.171Z,8.27
2017-08-20T19:31:38.593Z,7.43
2017-08-20T19:34:06.150Z,7.13
2017-08-20T19:39:05.059Z,7.70
2017-08-20T19:41:33.020Z,9.53
2017-08-20T20:00:32.579Z,8.57
2017-08-20T20:02:59.900Z,8.00
2017-08-20T20:05:26.933Z,8.17
2017-08-20T20:10:26.265Z,8.33
2017-08-20T20:12:54.258Z,8.60
2017-08-20T20:15:25.582Z,10.67
2017-08-20T20:17:52.765Z,9.30
2017-08-20T20:20:20.278Z,8.07
2017-08-20T20:22:47.406Z,9.03
2017-08-20T20:25:14.613Z,8.80
2017-08-20T20:27:41.724Z,8.90
2017-08-20T20:30:08.797Z,7.83
2017-08-20T20:32:35.929Z,8.80
2017-08-20T20:35:04.403Z,7.90
2017-08-20T20:37:31.772Z,7.43
2017-08-20T20:39:59.744Z,10.83
2017-08-20T20:42:28.354Z,14.73
2017-08-20T20:44:55.354Z,11.33
2017-08-20T20:47:22.409Z,10.07
2017-08-20T20:49:49.350Z,11.10
2017-08-20T20:52:16.400Z,17.30
2017-08-20T20:54:43.556Z,11.40
2017-08-20T20:57:11.267Z,12.13
2017-08-20T20:59:38.653Z,10.70
2017-08-20T21:02:05.638Z,13.07
2017-08-20T21:04:32.890Z,10.20
2017-08-20T21:07:00.076Z,12.27
2017-08-20T21:09:27.068Z,10.10
2017-08-20T21:11:54.958Z,10.17
2017-08-20T21:14:22.086Z,8.50
2017-08-20T21:16:49.099Z,8.87
2017-08-20T21:19:16.110Z,9.17
2017-08-20T21:21:43.114Z,9.47
2017-08-20T21:24:10.019Z,8.80
2017-08-20T21:26:37.143Z,8.10
2017-08-20T21:29:04.290Z,8.47
2017-08-20T21:31:31.625Z,8.70
2017-08-20T21:33:58.637Z,8.37
2017-08-20T21:36:25.683Z,8.80
2017-08-20T21:38:52.823Z,8.20
2017-08-20T21:41:19.790Z,8.77
2017-08-20T21:43:46.889Z,10.63
2017-08-20T21:46:14.483Z,10.37
2017-08-20T21:48:42.415Z,10.90
2017-08-20T21:51:09.556Z,9.87
2017-08-20T21:53:36.613Z,9.70
2017-08-20T21:56:03.770Z,10.53
2017-08-20T21:58:31.085Z,9.73
2017-08-20T22:00:58.037Z,10.77
2017-08-20T22:03:26.235Z,11.60
2017-08-20T22:05:53.416Z,11.20
2017-08-20T22:08:20.396Z,10.47
2017-08-20T22:10:47.505Z,11.13
2017-08-20T22:13:14.542Z,11.20
2017-08-20T22:15:41.542Z,11.37
2017-08-20T22:18:08.597Z,12.23
2017-08-20T22:20:35.649Z,11.40
2017-08-20T22:23:02.836Z,13.50
2017-08-20T22:25:31.970Z,11.30
2017-08-20T22:28:01.731Z,11.73
2017-08-20T22:30:28.807Z,12.83
2017-08-20T22:32:55.789Z,13.17
2017-08-20T22:40:28.363Z,12.63
2017-08-20T22:42:58.530Z,13.00
2017-08-20T22:45:25.690Z,13.13
2017-08-20T22:50:31.578Z,14.57
2017-08-20T22:52:58.881Z,13.27
2017-08-20T22:58:00.725Z,16.00
2017-08-20T23:00:27.869Z,15.43
2017-08-20T23:02:54.928Z,16.57
2017-08-20T23:05:22.004Z,16.50
2017-08-20T23:07:49.093Z,15.27
2017-08-20T23:10:16.169Z,18.60
2017-08-20T23:12:45.134Z,17.40
2017-08-20T23:15:12.218Z,17.70
2017-08-20T23:17:39.411Z,17.87
2017-08-20T23:20:07.159Z,20.33
2017-08-20T23:22:34.146Z,19.17
2017-08-20T23:25:15.972Z,19.00
2017-08-20T23:30:25.343Z,19.97
2017-08-20T23:33:00.897Z,19.07
2017-08-20T23:35:45.672Z,20.30
2017-08-20T23:38:25.140Z,19.77
2017-08-20T23:41:18.229Z,21.23
2017-08-20T23:43:49.571Z,20.80
